Time;durP1;ratioP1;P1;durP2;ratioP2;P2;SDS_P1;SDS_P2;PMS_P1;PMS_P2;Temp;Humidity;BMP_temperature;BMP_pressure;BME280_temperature;BME280_humidity;BME280_pressure;Samples;Min_cycle;Max_cycle;Signal;HPM_P1;HPM_P2
2021/12/22 00:02:09;;;;;;;58.67;17.13;;;;;;;-4.49;100.00;11341.69;5022102;28;20037;-66
2021/12/22 00:04:43;;;;;;;138.50;22.13;;;;;;;-4.67;100.00;10964.63;5015606;28;20047;-66
2021/12/22 00:07:08;;;;;;;56.47;16.73;;;;;;;-4.66;100.00;11146.19;5021923;28;20298;-66
2021/12/22 00:09:34;;;;;;;108.97;18.87;;;;;;;-4.64;100.00;10908.19;5010911;28;20352;-66
2021/12/22 00:11:59;;;;;;;85.80;17.37;;;;;;;-4.65;100.00;11263.19;5024179;28;20511;-66
2021/12/22 00:14:24;;;;;;;45.33;14.90;;;;;;;-4.57;100.00;12132.34;5014940;28;20032;-66
2021/12/22 00:16:50;;;;;;;91.07;18.93;;;;;;;-4.65;100.00;12291.84;5018398;28;20061;-66
2021/12/22 00:19:15;;;;;;;133.57;20.77;;;;;;;-4.73;100.00;11775.72;5008652;28;20092;-66
2021/12/22 00:21:40;;;;;;;94.33;18.20;;;;;;;-4.80;100.00;11557.88;5007225;28;20518;-66
2021/12/22 00:24:06;;;;;;;66.97;17.13;;;;;;;-4.78;100.00;11275.22;5013903;28;20038;-66
2021/12/22 00:26:32;;;;;;;71.37;18.07;;;;;;;-4.75;100.00;11628.66;5017802;28;20034;-66
2021/12/22 00:28:57;;;;;;;69.50;16.67;;;;;;;-4.62;100.00;11981.97;5013019;28;20272;-66
2021/12/22 00:31:23;;;;;;;40.90;14.90;;;;;;;-4.56;100.00;12592.41;5023599;28;20044;-66
2021/12/22 00:33:51;;;;;;;63.87;15.90;;;;;;;-4.52;100.00;12976.28;5008573;28;20026;-65
2021/12/22 00:36:19;;;;;;;44.80;15.37;;;;;;;-4.50;100.00;13434.31;5025888;28;20033;-66
2021/12/22 00:38:45;;;;;;;38.47;14.93;;;;;;;-4.52;100.00;13423.81;5018077;28;20302;-66
2021/12/22 00:41:11;;;;;;;62.70;15.33;;;;;;;-4.51;100.00;13289.97;5015047;28;20283;-66
2021/12/22 00:43:37;;;;;;;39.17;13.93;;;;;;;-4.50;100.00;13170.75;5018638;28;20279;-66
2021/12/22 00:46:04;;;;;;;41.97;14.93;;;;;;;-4.52;100.00;13354.19;5015464;28;20429;-66
2021/12/22 00:48:30;;;;;;;53.77;16.80;;;;;;;-4.55;100.00;13472.72;5017619;28;20037;-66
2021/12/22 00:50:55;;;;;;;41.60;15.83;;;;;;;-4.67;100.00;12534.97;5018813;28;20284;-66
2021/12/22 00:53:21;;;;;;;38.77;14.80;;;;;;;-4.65;100.00;12274.56;5021888;28;20052;-66
2021/12/22 00:55:47;;;;;;;65.07;15.60;;;;;;;-4.63;100.00;12483.69;5024888;28;20037;-66
2021/12/22 00:58:13;;;;;;;35.97;13.90;;;;;;;-4.56;100.00;12980.19;5019338;28;20042;-65
2021/12/22 01:00:38;;;;;;;36.20;14.30;;;;;;;-4.63;100.00;12809.28;5007367;28;20276;-66
2021/12/22 01:03:04;;;;;;;40.47;14.83;;;;;;;-4.60;100.00;12750.56;5021457;28;20025;-66
2021/12/22 01:05:30;;;;;;;41.20;15.03;;;;;;;-4.67;100.00;12241.63;5012530;28;20132;-65
2021/12/22 01:07:55;;;;;;;35.07;13.33;;;;;;;-4.63;100.00;12610.44;5012102;28;20042;-66
2021/12/22 01:10:24;;;;;;;35.30;13.40;;;;;;;-4.56;100.00;13544.53;5018385;28;20037;-66
2021/12/22 01:12:52;;;;;;;38.67;13.93;;;;;;;-4.54;100.00;13251.72;5018858;28;20037;-66
2021/12/22 01:15:18;;;;;;;59.90;15.47;;;;;;;-4.67;100.00;12771.06;5017597;28;20280;-66
2021/12/22 01:17:48;;;;;;;100.07;18.60;;;;;;;-4.72;100.00;12471.69;5007378;28;20294;-66
2021/12/22 01:20:27;;;;;;;33.53;14.03;;;;;;;-4.66;100.00;12313.94;5021114;28;20121;-65
2021/12/22 01:23:02;;;;;;;79.53;16.77;;;;;;;-4.65;100.00;13676.28;5020492;28;20295;-66
2021/12/22 01:25:28;;;;;;;33.43;12.50;;;;;;;-4.65;100.00;13997.00;5021173;28;20812;-66
2021/12/22 01:27:53;;;;;;;53.33;14.40;;;;;;;-4.67;100.00;14344.50;5021277;28;20314;-66
2021/12/22 01:30:22;;;;;;;54.83;14.17;;;;;;;-4.63;100.00;14365.56;5022908;28;20318;-66
2021/12/22 01:32:51;;;;;;;33.97;13.27;;;;;;;-4.62;100.00;14328.56;5020615;28;20033;-66
2021/12/22 01:35:19;;;;;;;32.60;12.23;;;;;;;-4.71;100.00;13597.69;5022920;28;20346;-65
2021/12/22 01:37:45;;;;;;;44.37;13.13;;;;;;;-4.75;100.00;13397.84;5021564;28;20282;-65
2021/12/22 01:40:13;;;;;;;60.77;14.17;;;;;;;-4.76;100.00;13424.78;5020991;28;20292;-66
2021/12/22 01:42:39;;;;;;;33.93;13.57;;;;;;;-4.75;100.00;13199.03;5020651;28;20063;-66
2021/12/22 01:45:36;;;;;;;52.20;14.40;;;;;;;-4.77;100.00;13894.41;5026621;28;20272;-66
2021/12/22 01:50:49;;;;;;;36.67;13.83;;;;;;;-4.76;100.00;14053.78;5018622;28;20352;-66
2021/12/22 01:53:20;;;;;;;38.30;11.83;;;;;;;-4.68;100.00;14754.50;5026426;28;20323;-66
2021/12/22 01:55:59;;;;;;;64.60;13.57;;;;;;;-4.73;100.00;14795.44;5023447;28;20280;-66
2021/12/22 01:58:37;;;;;;;33.33;12.40;;;;;;;-4.73;100.00;14892.56;5026735;28;20025;-66
2021/12/22 02:01:05;;;;;;;28.70;12.00;;;;;;;-4.68;100.00;14965.88;5018096;28;20423;-66
2021/12/22 02:03:31;;;;;;;23.80;11.03;;;;;;;-4.73;100.00;14887.59;5017741;28;20687;-66
2021/12/22 02:05:56;;;;;;;30.43;13.03;;;;;;;-4.76;100.00;14680.31;5017156;28;20291;-66
2021/12/22 02:08:22;;;;;;;23.57;11.07;;;;;;;-4.75;100.00;14630.88;5013012;28;20265;-65
2021/12/22 02:10:48;;;;;;;26.73;11.13;;;;;;;-4.81;100.00;14308.25;5010319;28;20441;-66
2021/12/22 02:13:20;;;;;;;26.43;11.70;;;;;;;-4.87;100.00;14075.50;5015066;28;20344;-66
2021/12/22 02:15:46;;;;;;;28.98;11.80;;;;;;;-4.86;100.00;14098.16;5016904;28;20272;-66
2021/12/22 02:18:17;;;;;;;28.17;11.10;;;;;;;-4.83;100.00;14019.34;5017361;28;20069;-65
2021/12/22 02:20:43;;;;;;;50.40;12.60;;;;;;;-4.92;100.00;13823.06;5014064;28;20285;-65
2021/12/22 02:23:09;;;;;;;27.57;10.43;;;;;;;-4.90;100.00;13212.19;5009876;28;20619;-65
2021/12/22 02:25:41;;;;;;;23.90;10.60;;;;;;;-4.91;100.00;13040.47;5016148;28;20280;-65
2021/12/22 02:28:15;;;;;;;47.73;13.00;;;;;;;-5.00;100.00;12553.81;5019248;28;20033;-65
2021/12/22 02:30:40;;;;;;;33.50;12.20;;;;;;;-5.04;100.00;12031.25;5013929;28;20264;-66
2021/12/22 02:33:21;;;;;;;70.90;14.93;;;;;;;-5.05;100.00;12098.03;5015661;28;20322;-66
2021/12/22 02:36:06;;;;;;;31.23;12.17;;;;;;;-4.98;100.00;12522.03;5020783;28;20021;-65
2021/12/22 02:38:42;;;;;;;32.10;12.23;;;;;;;-4.94;100.00;13034.84;5019787;28;20283;-66
2021/12/22 02:41:12;;;;;;;39.27;13.13;;;;;;;-4.93;100.00;13238.84;5018434;28;22107;-65
2021/12/22 02:43:47;;;;;;;30.03;11.93;;;;;;;-4.89;100.00;13925.66;5017584;28;20820;-66
2021/12/22 02:46:15;;;;;;;30.43;11.57;;;;;;;-4.87;100.00;14517.94;5013694;28;20372;-66
2021/12/22 02:48:41;;;;;;;26.93;11.23;;;;;;;-4.86;100.00;14739.34;5009821;28;20272;-66
2021/12/22 02:51:07;;;;;;;38.80;13.13;;;;;;;-4.90;100.00;14576.72;5019653;28;20618;-66
2021/12/22 02:53:41;;;;;;;41.17;13.60;;;;;;;-4.92;100.00;14412.06;5019077;28;20296;-65
2021/12/22 02:56:27;;;;;;;45.63;14.43;;;;;;;-4.89;100.00;14909.97;5013988;28;20047;-66
2021/12/22 03:06:34;;;;;;;49.77;13.83;;;;;;;-4.83;100.00;15986.19;5019379;28;20280;-65
2021/12/22 03:09:13;;;;;;;30.63;12.07;;;;;;;-4.81;100.00;15971.91;5017695;28;20281;-66
2021/12/22 03:11:39;;;;;;;35.63;12.07;;;;;;;-4.90;100.00;15471.69;5017412;28;20282;-65
2021/12/22 03:14:04;;;;;;;33.30;10.53;;;;;;;-4.88;100.00;15492.22;5013841;28;20288;-66
2021/12/22 03:16:29;;;;;;;70.37;14.73;;;;;;;-5.06;100.00;14751.06;5019881;28;20036;-65
2021/12/22 03:18:55;;;;;;;55.83;13.50;;;;;;;-5.09;100.00;14615.81;5020932;28;20017;-65
2021/12/22 03:21:22;;;;;;;60.77;13.17;;;;;;;-5.09;100.00;14675.47;5020851;28;20482;-66
2021/12/22 03:23:50;;;;;;;32.93;10.47;;;;;;;-5.12;100.00;14547.84;5020218;28;20474;-65
2021/12/22 03:26:17;;;;;;;22.63;10.17;;;;;;;-5.10;100.00;14769.59;5008596;28;20662;-66
2021/12/22 03:28:45;;;;;;;22.67;10.00;;;;;;;-5.09;100.00;15065.78;5021245;28;20278;-65
2021/12/22 03:31:11;;;;;;;21.67;9.53;;;;;;;-5.04;100.00;15489.88;5020467;28;20276;-66
2021/12/22 03:33:36;;;;;;;39.47;10.67;;;;;;;-5.04;100.00;15875.22;5011537;28;20292;-65
2021/12/22 03:36:02;;;;;;;31.73;10.90;;;;;;;-5.10;100.00;15361.09;5011322;28;20280;-65
2021/12/22 03:38:29;;;;;;;22.57;9.07;;;;;;;-5.14;100.00;15349.91;5011111;28;20033;-65
2021/12/22 03:40:55;;;;;;;24.87;9.87;;;;;;;-5.10;100.00;15348.66;5007472;28;20080;-66
2021/12/22 03:43:20;;;;;;;26.60;10.23;;;;;;;-5.05;100.00;15608.75;5011778;28;20264;-65
2021/12/22 03:45:46;;;;;;;22.87;10.03;;;;;;;-5.05;100.00;15479.47;5018081;28;20088;-65
2021/12/22 03:48:12;;;;;;;26.87;10.80;;;;;;;-5.13;100.00;14835.78;5006750;28;20748;-65
2021/12/22 03:50:37;;;;;;;23.90;10.07;;;;;;;-5.10;100.00;14645.34;5016642;28;20032;-66
2021/12/22 03:53:03;;;;;;;29.90;10.93;;;;;;;-5.12;100.00;14319.41;5018706;28;20029;-66
2021/12/22 03:55:28;;;;;;;23.77;10.10;;;;;;;-5.14;100.00;13965.88;5010202;28;20587;-65
2021/12/22 03:57:54;;;;;;;22.80;10.97;;;;;;;-5.17;100.00;14071.84;5014123;28;20031;-66
2021/12/22 04:00:19;;;;;;;36.03;11.30;;;;;;;-5.10;100.00;14322.47;5018927;28;20444;-65
2021/12/22 04:02:45;;;;;;;32.43;10.83;;;;;;;-5.15;100.00;14266.34;5014539;28;20021;-66
2021/12/22 04:05:11;;;;;;;24.10;9.33;;;;;;;-5.19;100.00;13904.84;5012579;28;20057;-65
2021/12/22 04:07:36;;;;;;;53.47;12.30;;;;;;;-5.23;100.00;13732.47;5015801;28;20490;-66
2021/12/22 04:10:18;;;;;;;30.07;10.30;;;;;;;-5.23;100.00;13744.88;5017192;28;20031;-65
2021/12/22 04:12:44;;;;;;;22.93;9.67;;;;;;;-5.19;100.00;14160.72;5012186;28;20029;-66
2021/12/22 04:15:09;;;;;;;51.63;12.33;;;;;;;-5.16;100.00;14196.34;5012236;28;20277;-66
2021/12/22 04:17:34;;;;;;;28.20;11.63;;;;;;;-5.18;100.00;14528.69;5014763;28;20599;-66
2021/12/22 04:20:00;;;;;;;25.37;10.87;;;;;;;-5.16;100.00;14415.13;5008625;28;20072;-66
2021/12/22 04:22:25;;;;;;;28.73;11.33;;;;;;;-5.23;100.00;14159.56;5020961;28;20025;-65
2021/12/22 04:24:51;;;;;;;29.70;11.47;;;;;;;-5.24;100.00;14181.63;5017937;28;20639;-65
2021/12/22 04:27:16;;;;;;;40.93;11.83;;;;;;;-5.25;100.00;14318.09;5007223;28;20032;-65
2021/12/22 04:29:42;;;;;;;36.93;11.57;;;;;;;-5.30;100.00;14045.91;5009120;28;20072;-66
2021/12/22 04:32:07;;;;;;;27.47;10.90;;;;;;;-5.30;100.00;14502.94;5008653;28;20025;-66
2021/12/22 04:34:32;;;;;;;27.90;11.07;;;;;;;-5.31;100.00;14530.13;5014244;28;20026;-66
2021/12/22 04:36:58;;;;;;;25.13;9.87;;;;;;;-5.42;100.00;14357.84;5004983;28;20039;-65
2021/12/22 04:39:25;;;;;;;32.50;10.40;;;;;;;-5.48;100.00;14095.50;5017150;28;20026;-65
2021/12/22 04:41:51;;;;;;;42.13;11.40;;;;;;;-5.45;100.00;14724.66;5013285;28;20309;-65
2021/12/22 04:44:16;;;;;;;23.00;8.53;;;;;;;-5.43;100.00;15035.75;5015609;28;20269;-65
2021/12/22 04:46:42;;;;;;;61.37;11.97;;;;;;;-5.37;100.00;15666.13;5012949;28;20033;-65
2021/12/22 04:49:07;;;;;;;50.97;12.70;;;;;;;-5.39;100.00;15672.94;5012700;28;20053;-65
2021/12/22 04:51:35;;;;;;;29.00;10.43;;;;;;;-5.34;100.00;15925.47;5008223;28;20401;-65
2021/12/22 04:56:29;;;;;;;30.30;11.53;;;;;;;-5.35;100.00;15947.38;5012219;28;20286;-66
2021/12/22 04:58:54;;;;;;;29.47;9.97;;;;;;;-5.40;100.00;15680.09;5024049;28;20271;-66
2021/12/22 05:01:19;;;;;;;33.00;9.70;;;;;;;-5.40;100.00;15655.25;5018702;28;20100;-65
2021/12/22 05:03:45;;;;;;;40.13;12.27;;;;;;;-5.46;100.00;15553.81;5016166;28;20071;-66
2021/12/22 05:06:10;;;;;;;51.10;10.97;;;;;;;-5.43;100.00;15316.44;5011815;28;20108;-66
2021/12/22 05:08:36;;;;;;;22.77;9.50;;;;;;;-5.40;100.00;15769.53;5018575;28;20099;-66
2021/12/22 05:11:01;;;;;;;29.57;10.90;;;;;;;-5.36;100.00;15885.09;5021688;28;20025;-65
2021/12/22 05:13:26;;;;;;;41.63;10.63;;;;;;;-5.33;100.00;16002.84;5009386;28;20478;-65
2021/12/22 05:15:52;;;;;;;20.93;9.33;;;;;;;-5.32;100.00;15672.50;5015392;28;20060;-65
2021/12/22 05:18:48;;;;;;;26.03;8.80;;;;;;;-5.28;100.00;15999.16;5010256;28;20022;-66
2021/12/22 05:21:09;;;;;;;24.07;8.97;;;;;;;-5.34;100.00;15811.19;5015426;28;20065;-65
2021/12/22 05:23:34;;;;;;;22.37;9.40;;;;;;;-5.32;100.00;15871.44;5011853;28;20319;-65
2021/12/22 05:25:59;;;;;;;23.67;9.00;;;;;;;-5.27;100.00;16200.78;5018452;28;20445;-65
2021/12/22 05:28:25;;;;;;;26.63;10.10;;;;;;;-5.22;100.00;16575.25;5016883;28;20026;-66
2021/12/22 05:30:50;;;;;;;43.07;10.33;;;;;;;-5.27;100.00;16553.72;5022197;28;20113;-65
2021/12/22 05:33:16;;;;;;;23.83;9.23;;;;;;;-5.28;100.00;16115.97;5020566;28;20101;-66
2021/12/22 05:35:41;;;;;;;22.40;8.80;;;;;;;-5.26;100.00;16231.09;5022354;28;20025;-65
2021/12/22 05:38:07;;;;;;;25.90;9.60;;;;;;;-5.33;100.00;16229.00;5013362;28;20482;-65
2021/12/22 05:40:32;;;;;;;44.10;10.57;;;;;;;-5.31;100.00;15829.38;5015631;28;20029;-66
2021/12/22 05:42:58;;;;;;;26.20;9.03;;;;;;;-5.28;100.00;15738.22;5015022;28;20018;-66
2021/12/22 05:45:25;;;;;;;21.50;9.73;;;;;;;-5.23;100.00;16147.38;5022079;28;20029;-65
2021/12/22 05:47:52;;;;;;;28.70;9.43;;;;;;;-5.24;100.00;16082.44;5018779;28;20026;-66
2021/12/22 05:50:19;;;;;;;55.97;8.77;;;;;;;-5.26;100.00;16086.78;5017404;28;20342;-65
2021/12/22 05:52:45;;;;;;;29.17;9.67;;;;;;;-5.24;100.00;16261.41;5015360;28;20705;-65
2021/12/22 05:55:10;;;;;;;37.93;10.10;;;;;;;-5.21;100.00;16660.13;5019624;28;20325;-65
2021/12/22 05:57:36;;;;;;;32.90;9.90;;;;;;;-5.24;100.00;16748.78;5019193;28;20025;-65
2021/12/22 06:00:04;;;;;;;42.10;9.80;;;;;;;-5.26;100.00;16805.13;5011414;28;20025;-65
2021/12/22 06:02:29;;;;;;;27.60;9.10;;;;;;;-5.28;100.00;16359.69;5006935;28;20117;-63
2021/12/22 06:04:54;;;;;;;24.50;9.93;;;;;;;-5.28;100.00;16205.44;5017180;28;20379;-63
2021/12/22 06:07:20;;;;;;;19.97;7.97;;;;;;;-5.27;100.00;16409.56;5021216;28;20105;-64
2021/12/22 06:09:45;;;;;;;21.27;8.97;;;;;;;-5.32;100.00;16179.59;5012165;28;20108;-66
2021/12/22 06:12:11;;;;;;;25.73;10.17;;;;;;;-5.32;100.00;16537.50;5015199;28;20041;-66
2021/12/22 06:14:36;;;;;;;23.50;9.97;;;;;;;-5.30;100.00;16557.88;5019680;28;20096;-66
2021/12/22 06:17:02;;;;;;;33.53;10.90;;;;;;;-5.33;100.00;16273.56;5012917;28;20181;-66
2021/12/22 06:19:27;;;;;;;38.60;9.17;;;;;;;-5.33;100.00;16030.19;5009187;28;20521;-66
2021/12/22 06:21:53;;;;;;;26.20;9.43;;;;;;;-5.37;100.00;15899.69;5013870;28;20060;-66
2021/12/22 06:24:18;;;;;;;29.67;9.87;;;;;;;-5.41;100.00;15883.50;5013729;28;20018;-66
2021/12/22 06:26:44;;;;;;;23.33;9.23;;;;;;;-5.33;100.00;16360.72;5015980;28;20025;-66
2021/12/22 06:29:09;;;;;;;22.03;8.27;;;;;;;-5.37;100.00;16118.34;5010614;28;20095;-66
2021/12/22 06:31:34;;;;;;;25.60;8.13;;;;;;;-5.35;100.00;15930.13;5007734;28;20037;-66
2021/12/22 06:34:00;;;;;;;26.73;9.67;;;;;;;-5.34;100.00;16134.22;5005916;28;20036;-66
2021/12/22 06:36:25;;;;;;;25.20;8.73;;;;;;;-5.36;100.00;15820.31;5023084;28;20026;-66
2021/12/22 06:38:51;;;;;;;26.63;10.30;;;;;;;-5.35;100.00;16056.88;5011761;28;20087;-66
2021/12/22 06:41:16;;;;;;;41.50;10.37;;;;;;;-5.33;100.00;16422.84;5016129;28;20036;-66
2021/12/22 06:43:41;;;;;;;26.37;8.80;;;;;;;-5.29;100.00;16737.00;5011698;28;20636;-66
2021/12/22 06:46:09;;;;;;;31.80;10.70;;;;;;;-5.32;100.00;16522.59;5005632;28;20105;-66
2021/12/22 06:48:35;;;;;;;22.60;10.40;;;;;;;-5.36;100.00;15989.28;5007070;28;20022;-66
2021/12/22 06:51:00;;;;;;;25.93;10.10;;;;;;;-5.33;100.00;16050.06;5014857;28;20382;-66
2021/12/22 06:53:25;;;;;;;25.77;10.17;;;;;;;-5.42;100.00;15848.41;5019884;28;20558;-66
2021/12/22 06:55:51;;;;;;;32.03;10.27;;;;;;;-5.39;100.00;15839.41;5020803;28;20087;-66
2021/12/22 06:58:16;;;;;;;25.43;9.93;;;;;;;-5.38;100.00;15755.09;5012963;28;20021;-66
2021/12/22 07:00:42;;;;;;;27.93;9.87;;;;;;;-5.41;100.00;15610.03;5021292;28;20029;-66
2021/12/22 07:03:08;;;;;;;32.10;10.77;;;;;;;-5.38;100.00;15869.38;5013154;28;20037;-66
2021/12/22 07:05:33;;;;;;;20.73;8.47;;;;;;;-5.36;100.00;15765.66;5014807;28;20045;-66
2021/12/22 07:07:59;;;;;;;26.53;9.40;;;;;;;-5.36;100.00;14819.25;5006231;28;20049;-66
2021/12/22 07:10:24;;;;;;;24.00;8.73;;;;;;;-5.36;100.00;15502.44;5015687;28;20041;-66
2021/12/22 07:12:50;;;;;;;26.77;10.83;;;;;;;-5.36;100.00;15348.25;5007637;28;20078;-66
2021/12/22 07:15:17;;;;;;;25.67;9.50;;;;;;;-5.40;100.00;15287.56;5021764;28;20034;-66
2021/12/22 07:17:47;;;;;;;24.70;8.73;;;;;;;-5.36;100.00;15683.81;5005770;28;20034;-66
2021/12/22 07:20:15;;;;;;;32.07;11.40;;;;;;;-5.45;100.00;14625.19;5018150;28;20696;-66
2021/12/22 07:22:41;;;;;;;25.77;9.57;;;;;;;-5.44;100.00;14869.03;5006294;28;20447;-66
2021/12/22 07:25:08;;;;;;;22.50;9.07;;;;;;;-5.36;100.00;15420.44;5006822;28;20287;-66
2021/12/22 07:27:33;;;;;;;24.93;10.00;;;;;;;-5.29;100.00;15206.16;5011368;28;20361;-66
2021/12/22 07:29:59;;;;;;;22.33;9.13;;;;;;;-5.36;100.00;15070.00;5018784;28;20334;-67
2021/12/22 07:32:24;;;;;;;24.50;9.30;;;;;;;-5.35;100.00;15299.03;5008857;28;20451;-67
2021/12/22 07:35:09;;;;;;;26.43;10.30;;;;;;;-5.37;100.00;15035.06;5007648;28;20033;-67
2021/12/22 07:37:41;;;;;;;24.23;9.43;;;;;;;-5.39;100.00;14721.50;5006876;28;20041;-66
2021/12/22 07:40:13;;;;;;;26.30;8.95;;;;;;;-5.36;100.00;14873.91;5019767;28;20272;-66
2021/12/22 07:42:39;;;;;;;;;;;;;;;-5.34;100.00;14392.47;5008939;28;20026;-66
2021/12/22 07:45:05;;;;;;;26.83;10.80;;;;;;;-5.40;100.00;14293.84;5009397;28;19924;-66
2021/12/22 07:47:31;;;;;;;29.27;10.47;;;;;;;-5.43;100.00;14183.88;5016202;28;20474;-66
2021/12/22 07:49:56;;;;;;;21.97;8.47;;;;;;;-5.39;100.00;14393.63;5008097;28;20268;-71
2021/12/22 07:52:26;;;;;;;27.90;10.03;;;;;;;-5.40;100.00;14259.25;5012118;28;20067;-66
2021/12/22 07:54:51;;;;;;;24.80;9.00;;;;;;;-5.38;100.00;14659.69;5020577;28;20655;-66
2021/12/22 07:57:17;;;;;;;23.40;9.27;;;;;;;-5.34;100.00;14564.00;5010239;28;20311;-66
2021/12/22 07:59:42;;;;;;;23.80;10.17;;;;;;;-5.32;100.00;14077.75;5009042;28;20050;-66
2021/12/22 08:02:09;;;;;;;27.37;10.27;;;;;;;-5.24;100.00;14738.09;5018635;28;20036;-66
2021/12/22 08:04:35;;;;;;;25.13;9.63;;;;;;;-5.25;100.00;14437.19;5017404;28;20041;-66
2021/12/22 08:07:01;;;;;;;28.40;10.87;;;;;;;-5.29;100.00;14088.28;5001764;28;20297;-66
2021/12/22 08:09:27;;;;;;;27.17;10.60;;;;;;;-5.29;100.00;13477.47;5006253;28;20358;-66
2021/12/22 08:11:56;;;;;;;27.07;10.53;;;;;;;-5.24;100.00;13508.50;5017052;28;20147;-66
2021/12/22 08:14:23;;;;;;;27.20;10.23;;;;;;;-5.26;100.00;13408.63;5021305;28;20021;-66
2021/12/22 08:16:52;;;;;;;27.53;10.83;;;;;;;-5.25;100.00;13140.69;5021268;28;20407;-66
2021/12/22 08:19:18;;;;;;;26.20;10.33;;;;;;;-5.23;100.00;13273.00;5008227;28;20273;-66
2021/12/22 08:21:44;;;;;;;26.17;10.93;;;;;;;-5.20;100.00;13075.00;5007971;28;20280;-66
2021/12/22 08:24:10;;;;;;;26.63;10.63;;;;;;;-5.21;100.00;12933.19;5001009;28;20030;-66
2021/12/22 08:26:35;;;;;;;25.90;10.23;;;;;;;-5.15;100.00;13506.03;5002990;28;20289;-66
2021/12/22 08:29:01;;;;;;;28.97;10.87;;;;;;;-5.12;100.00;13650.94;5005399;28;20346;-66
2021/12/22 08:31:26;;;;;;;27.77;10.80;;;;;;;-5.11;100.00;12925.94;5012367;28;20100;-66
2021/12/22 08:33:54;;;;;;;22.03;9.93;;;;;;;-5.04;100.00;13084.44;5002524;28;20038;-66
2021/12/22 08:39:06;;;;;;;26.17;10.83;;;;;;;-4.92;100.00;13907.56;5001602;28;20263;-66
2021/12/22 08:41:35;;;;;;;27.77;9.70;;;;;;;-4.99;100.00;12834.63;5012418;28;20276;-66
2021/12/22 08:44:05;;;;;;;24.37;10.00;;;;;;;-4.97;100.00;13143.19;5005483;28;20123;-66
2021/12/22 08:46:31;;;;;;;24.97;9.17;;;;;;;-4.88;100.00;13448.78;5004436;28;20271;-66
2021/12/22 08:48:57;;;;;;;24.23;10.07;;;;;;;-4.82;100.00;13207.06;5016849;28;20283;-66
2021/12/22 08:51:23;;;;;;;24.70;10.27;;;;;;;-4.86;100.00;12915.25;5014906;28;20275;-66
2021/12/22 08:53:48;;;;;;;24.17;9.83;;;;;;;-4.80;100.00;13331.72;5015823;28;20418;-66
2021/12/22 08:56:14;;;;;;;24.00;9.57;;;;;;;-4.86;100.00;12766.03;5019335;28;20573;-66
2021/12/22 08:58:40;;;;;;;27.30;10.03;;;;;;;-4.90;100.00;12409.84;5020663;28;20029;-66
2021/12/22 09:01:06;;;;;;;25.33;9.93;;;;;;;-4.86;100.00;12654.38;5014030;28;20034;-66
2021/12/22 09:03:32;;;;;;;22.80;9.87;;;;;;;-4.86;100.00;12572.38;5004415;28;20430;-66
2021/12/22 09:05:59;;;;;;;24.20;10.27;;;;;;;-4.82;100.00;12864.13;5002196;28;20351;-66
2021/12/22 09:08:25;;;;;;;22.07;8.73;;;;;;;-4.76;100.00;12880.50;5013251;28;20281;-66
2021/12/22 09:10:51;;;;;;;24.30;10.67;;;;;;;-4.68;100.00;13307.53;5017825;28;20299;-66
2021/12/22 09:13:19;;;;;;;23.83;9.73;;;;;;;-4.53;100.00;14065.09;5011005;28;20284;-66
2021/12/22 09:15:45;;;;;;;25.00;10.23;;;;;;;-4.52;100.00;16030.59;5019437;28;20064;-66
2021/12/22 09:18:10;;;;;;;24.77;10.30;;;;;;;-4.50;100.00;15994.06;5010490;28;21096;-66
2021/12/22 09:20:36;;;;;;;25.30;10.63;;;;;;;-4.43;100.00;15635.31;5014318;28;20275;-66
2021/12/22 09:23:01;;;;;;;23.43;9.40;;;;;;;-4.40;100.00;15591.47;5019351;28;20026;-66
2021/12/22 09:25:26;;;;;;;23.23;9.13;;;;;;;-4.47;100.00;14395.13;5001685;28;20022;-66
2021/12/22 09:27:52;;;;;;;27.33;10.50;;;;;;;-4.44;100.00;14520.38;5009094;28;20037;-66
2021/12/22 09:30:17;;;;;;;32.50;9.80;;;;;;;-4.49;100.00;14302.50;5013215;28;20029;-66
2021/12/22 09:32:43;;;;;;;24.57;10.33;;;;;;;-4.46;100.00;15492.53;5009550;28;20025;-67
2021/12/22 09:35:08;;;;;;;24.63;10.37;;;;;;;-4.40;100.00;16066.66;5007570;28;20084;-64
2021/12/22 09:37:34;;;;;;;24.77;10.23;;;;;;;-4.32;100.00;16539.72;5001004;28;20056;-66
2021/12/22 09:39:59;;;;;;;28.67;10.73;;;;;;;-4.17;100.00;17299.44;5016028;28;20033;-66
2021/12/22 09:42:25;;;;;;;24.37;9.60;;;;;;;-4.09;100.00;18049.22;5019840;28;20030;-66
2021/12/22 09:44:50;;;;;;;26.53;10.07;;;;;;;-4.03;100.00;17969.13;5024602;28;20021;-66
2021/12/22 09:47:25;;;;;;;26.40;10.50;;;;;;;-4.04;100.00;17874.25;5019534;28;20087;-66
2021/12/22 09:50:08;;;;;;;23.60;9.97;;;;;;;-4.08;100.00;16736.72;5015716;28;20045;-66
2021/12/22 09:52:35;;;;;;;23.27;10.03;;;;;;;-4.07;100.00;16565.19;5004482;28;20269;-66
2021/12/22 09:55:01;;;;;;;24.53;10.50;;;;;;;-4.10;100.00;16153.47;5021521;28;20311;-66
2021/12/22 09:57:29;;;;;;;26.20;10.60;;;;;;;-4.08;100.00;16263.69;5014610;28;20319;-66
2021/12/22 09:59:56;;;;;;;25.90;10.77;;;;;;;-3.95;100.00;17154.63;5023784;28;20080;-66
2021/12/22 10:02:26;;;;;;;31.43;10.60;;;;;;;-3.91;100.00;17108.63;5018777;28;20296;-66
2021/12/22 10:04:51;;;;;;;23.77;10.57;;;;;;;-3.83;100.00;17447.78;5010375;28;20713;-66
2021/12/22 10:07:19;;;;;;;24.30;10.23;;;;;;;-3.77;100.00;17472.28;5013605;28;20283;-66
2021/12/22 10:09:47;;;;;;;25.67;10.60;;;;;;;-3.66;100.00;17687.81;5004354;28;20065;-66
2021/12/22 10:12:24;;;;;;;25.60;10.30;;;;;;;-3.65;100.00;17568.66;5006686;28;20283;-66
2021/12/22 10:14:53;;;;;;;23.47;9.77;;;;;;;-3.64;100.00;16701.50;5023854;28;20284;-66
2021/12/22 10:17:40;;;;;;;24.83;9.90;;;;;;;-3.64;100.00;15851.66;5020016;28;20324;-66
2021/12/22 10:20:13;;;;;;;26.23;10.63;;;;;;;-3.54;100.00;16081.63;5012405;28;20958;-66
2021/12/22 10:22:44;;;;;;;27.87;10.43;;;;;;;-3.49;100.00;15793.81;5010216;28;20310;-66
2021/12/22 10:25:14;;;;;;;24.85;9.75;;;;;;;-3.51;100.00;14106.44;5010270;28;20637;-66
2021/12/22 10:27:43;;;;;;;23.40;10.50;;;;;;;-3.54;100.00;13637.44;5006279;28;20026;-66
2021/12/22 10:30:24;;;;;;;23.57;10.03;;;;;;;-3.48;100.00;13115.97;5012842;28;20319;-66
2021/12/22 10:33:04;;;;;;;25.42;10.50;;;;;;;-3.41;100.00;12547.53;5009793;28;20728;-66
2021/12/22 10:35:32;;;;;;;25.73;10.80;;;;;;;-3.38;100.00;12085.00;5018515;28;20119;-66
2021/12/22 10:37:59;;;;;;;21.67;9.63;;;;;;;-3.36;100.00;11502.97;5012342;28;20300;-66
2021/12/22 10:40:33;;;;;;;25.53;11.00;;;;;;;-3.34;100.00;10736.69;5016001;28;20279;-66
2021/12/22 10:42:59;;;;;;;25.87;10.13;;;;;;;-3.37;100.00;10178.38;5022924;28;20260;-66
2021/12/22 10:45:27;;;;;;;21.97;9.97;;;;;;;-3.36;100.00;9163.34;5020697;28;20395;-66
2021/12/22 10:50:43;;;;;;;25.10;9.90;;;;;;;-3.39;100.00;7384.44;5004376;28;20331;-66
2021/12/22 10:53:11;;;;;;;21.53;9.47;;;;;;;-3.28;100.00;8398.69;5009340;28;20296;-66
2021/12/22 10:55:42;;;;;;;27.03;10.03;;;;;;;-3.18;100.00;8838.56;5022778;28;20268;-66
2021/12/22 10:58:30;;;;;;;26.10;8.90;;;;;;;-3.14;100.00;8709.94;5014390;28;20280;-66
2021/12/22 11:01:17;;;;;;;22.93;10.07;;;;;;;-3.19;100.00;7860.47;5014784;28;20041;-66
2021/12/22 11:03:49;;;;;;;24.40;9.77;;;;;;;-3.21;100.00;7932.34;5003826;28;20443;-66
2021/12/22 11:06:27;;;;;;;26.02;10.50;;;;;;;-3.15;100.00;8197.16;5010399;28;20284;-66
2021/12/22 11:09:04;;;;;;;27.50;10.37;;;;;;;-3.05;100.00;8602.22;5013786;28;20026;-66
2021/12/22 11:11:38;;;;;;;24.23;10.73;;;;;;;-2.96;100.00;9540.03;5004702;28;20371;-66
2021/12/22 11:14:17;;;;;;;24.73;9.80;;;;;;;-2.88;100.00;9374.69;5007666;28;20555;-66
2021/12/22 11:17:19;;;;;;;27.83;11.03;;;;;;;-2.78;100.00;9170.19;5012942;28;20589;-66
2021/12/22 11:20:06;;;;;;;25.30;10.15;;;;;;;-2.69;100.00;9077.28;5010800;28;20276;-66
2021/12/22 11:22:52;;;;;;;27.03;10.40;;;;;;;-2.66;100.00;7972.19;5020229;28;20041;-66
2021/12/22 11:25:18;;;;;;;22.77;9.40;;;;;;;-2.63;100.00;6954.47;5019779;28;20802;-66
2021/12/22 11:27:44;;;;;;;26.97;10.80;;;;;;;-2.70;100.00;5823.47;5013942;28;20811;-64
2021/12/22 11:30:11;;;;;;;27.10;11.03;;;;;;;-2.75;100.00;4233.34;5004797;28;20272;-66
2021/12/22 11:32:38;;;;;;;24.60;9.53;;;;;;;-2.68;100.00;3704.50;5016975;28;20101;-66
2021/12/22 11:35:06;;;;;;;23.33;11.87;;;;;;;-2.67;100.00;2894.06;5012939;28;20379;-66